createdAt,value
2018-12-19T00:00:11.256Z,8.04672
2018-12-19T00:00:23.605Z,8.04672
2018-12-19T00:00:35.969Z,8.04672
2018-12-19T00:00:48.335Z,8.04672
2018-12-19T00:01:00.681Z,8.04672
2018-12-19T00:01:13.034Z,3.218688
2018-12-19T00:01:25.388Z,4.828032
2018-12-19T00:01:37.736Z,4.828032
2018-12-19T00:01:50.090Z,4.828032
2018-12-19T00:02:02.531Z,9.656064
2018-12-19T00:02:14.884Z,9.656064
2018-12-19T00:02:27.374Z,9.656064
2018-12-19T00:02:39.708Z,9.656064
2018-12-19T00:02:52.039Z,11.265408
2018-12-19T00:03:04.390Z,11.265408
2018-12-19T00:03:16.746Z,8.04672
2018-12-19T00:03:29.081Z,11.265408
2018-12-19T00:03:41.449Z,11.265408
2018-12-19T00:03:53.777Z,11.265408
2018-12-19T00:04:06.126Z,6.437376
2018-12-19T00:04:18.462Z,6.437376
2018-12-19T00:04:30.789Z,8.04672
2018-12-19T00:04:43.121Z,8.04672
2018-12-19T00:04:55.455Z,8.04672
2018-12-19T00:05:07.775Z,8.04672
2018-12-19T00:05:20.114Z,8.04672
2018-12-19T00:05:32.445Z,11.265408
2018-12-19T00:05:44.771Z,11.265408
2018-12-19T00:05:57.106Z,11.265408
2018-12-19T00:06:09.442Z,8.04672
2018-12-19T00:06:21.773Z,8.04672
2018-12-19T00:06:34.593Z,8.04672
2018-12-19T00:06:47.122Z,8.04672
2018-12-19T00:06:59.494Z,9.656064
2018-12-19T00:07:11.884Z,8.04672
2018-12-19T00:07:24.234Z,9.656064
2018-12-19T00:07:36.595Z,9.656064
2018-12-19T00:07:48.959Z,9.656064
2018-12-19T00:08:01.307Z,9.656064
2018-12-19T00:08:13.652Z,6.437376
2018-12-19T00:08:25.979Z,6.437376
2018-12-19T00:08:38.311Z,9.656064
2018-12-19T00:08:50.679Z,11.265408
2018-12-19T00:09:08.760Z,12.874752
2018-12-19T00:09:21.093Z,12.874752
2018-12-19T00:09:33.426Z,12.874752
2018-12-19T00:09:45.781Z,12.874752
2018-12-19T00:09:58.137Z,12.874752
2018-12-19T00:10:10.510Z,4.828032
2018-12-19T00:10:22.863Z,6.437376
2018-12-19T00:10:35.204Z,6.437376
2018-12-19T00:10:47.700Z,6.437376
2018-12-19T00:11:00.049Z,11.265408
2018-12-19T00:11:12.425Z,8.04672
2018-12-19T00:11:24.760Z,8.04672
2018-12-19T00:11:37.250Z,8.04672
2018-12-19T00:11:49.587Z,8.04672
2018-12-19T00:12:01.919Z,9.656064
2018-12-19T00:12:14.251Z,8.04672
2018-12-19T00:12:26.585Z,8.04672
2018-12-19T00:12:38.926Z,9.656064
2018-12-19T00:12:51.277Z,9.656064
2018-12-19T00:13:03.614Z,3.218688
2018-12-19T00:13:15.969Z,8.04672
2018-12-19T00:13:28.317Z,8.04672
2018-12-19T00:13:40.645Z,9.656064
2018-12-19T00:13:53.283Z,9.656064
2018-12-19T00:14:05.614Z,9.656064
2018-12-19T00:14:17.969Z,9.656064
2018-12-19T00:14:30.303Z,9.656064
2018-12-19T00:14:42.643Z,9.656064
2018-12-19T00:14:54.990Z,11.265408
2018-12-19T00:15:07.339Z,6.437376
2018-12-19T00:15:19.676Z,6.437376
2018-12-19T00:15:32.088Z,6.437376
2018-12-19T00:15:44.418Z,8.04672
2018-12-19T00:15:56.790Z,8.04672
2018-12-19T00:16:09.204Z,6.437376
2018-12-19T00:16:21.589Z,6.437376
2018-12-19T00:16:33.937Z,11.265408
2018-12-19T00:16:46.287Z,16.09344
2018-12-19T00:16:58.810Z,16.09344
2018-12-19T00:17:11.319Z,9.656064
2018-12-19T00:17:23.675Z,9.656064
2018-12-19T00:17:36.020Z,9.656064
2018-12-19T00:17:48.364Z,9.656064
2018-12-19T00:18:00.769Z,9.656064
2018-12-19T00:18:13.107Z,6.437376
2018-12-19T00:18:25.461Z,9.656064
2018-12-19T00:18:37.805Z,9.656064
2018-12-19T00:18:50.158Z,9.656064
2018-12-19T00:19:02.495Z,9.656064
2018-12-19T00:19:14.828Z,9.656064
2018-12-19T00:19:27.246Z,9.656064
2018-12-19T00:19:39.598Z,9.656064
2018-12-19T00:19:51.955Z,9.656064
2018-12-19T00:20:04.444Z,9.656064
2018-12-19T00:20:16.805Z,11.265408
2018-12-19T00:20:29.150Z,11.265408
2018-12-19T00:20:41.490Z,11.265408
2018-12-19T00:20:53.850Z,11.265408
2018-12-19T00:21:06.174Z,9.656064
2018-12-19T00:21:18.495Z,11.265408
2018-12-19T00:21:30.825Z,11.265408
2018-12-19T00:21:43.163Z,14.484096
2018-12-19T00:21:55.508Z,14.484096
2018-12-19T00:22:07.828Z,9.656064
2018-12-19T00:22:20.163Z,9.656064
2018-12-19T00:22:32.498Z,9.656064
2018-12-19T00:22:44.830Z,9.656064
2018-12-19T00:22:57.174Z,9.656064
2018-12-19T00:23:09.504Z,9.656064
2018-12-19T00:23:21.846Z,9.656064
2018-12-19T00:23:34.268Z,9.656064
2018-12-19T00:23:46.605Z,9.656064
2018-12-19T00:23:58.946Z,9.656064
2018-12-19T00:24:11.277Z,11.265408
2018-12-19T00:24:23.616Z,11.265408
2018-12-19T00:24:35.961Z,11.265408
2018-12-19T00:24:48.466Z,11.265408
2018-12-19T00:25:00.807Z,11.265408
2018-12-19T00:25:13.223Z,4.828032
2018-12-19T00:25:25.601Z,4.828032
2018-12-19T00:25:37.951Z,9.656064
2018-12-19T00:25:50.307Z,9.656064
2018-12-19T00:26:02.656Z,9.656064
2018-12-19T00:26:14.988Z,6.437376
2018-12-19T00:26:27.314Z,8.04672
2018-12-19T00:26:39.823Z,11.265408
2018-12-19T00:26:52.182Z,11.265408
2018-12-19T00:27:04.515Z,6.437376
2018-12-19T00:27:16.856Z,6.437376
2018-12-19T00:27:29.190Z,9.656064
2018-12-19T00:27:41.529Z,9.656064
2018-12-19T00:27:53.866Z,9.656064
2018-12-19T00:28:06.196Z,3.218688
2018-12-19T00:28:18.525Z,4.828032
2018-12-19T00:28:30.855Z,8.04672
2018-12-19T00:28:43.191Z,9.656064
2018-12-19T00:28:55.566Z,9.656064
2018-12-19T00:29:07.893Z,8.04672
2018-12-19T00:29:20.248Z,8.04672
2018-12-19T00:29:32.586Z,8.04672
2018-12-19T00:29:44.930Z,8.04672
2018-12-19T00:29:57.268Z,9.656064
2018-12-19T00:30:09.769Z,8.04672
2018-12-19T00:30:22.105Z,8.04672
2018-12-19T00:30:34.432Z,8.04672
2018-12-19T00:30:46.760Z,8.04672
2018-12-19T00:30:59.104Z,8.04672
2018-12-19T00:31:11.432Z,8.04672
2018-12-19T00:31:23.763Z,8.04672
2018-12-19T00:31:36.093Z,8.04672
2018-12-19T00:31:48.450Z,8.04672
2018-12-19T00:32:00.861Z,8.04672
2018-12-19T00:32:13.261Z,8.04672
2018-12-19T00:32:25.612Z,8.04672
2018-12-19T00:32:38.063Z,8.04672
2018-12-19T00:32:50.476Z,8.04672
2018-12-19T00:33:02.877Z,6.437376
2018-12-19T00:33:15.227Z,6.437376
2018-12-19T00:33:27.634Z,6.437376
2018-12-19T00:33:40.119Z,6.437376
2018-12-19T00:33:52.461Z,6.437376
2018-12-19T00:34:04.797Z,8.04672
2018-12-19T00:34:17.139Z,11.265408
2018-12-19T00:34:29.534Z,11.265408
2018-12-19T00:34:41.891Z,11.265408
2018-12-19T00:34:54.241Z,11.265408
2018-12-19T00:35:06.580Z,8.04672
2018-12-19T00:35:18.916Z,9.656064
2018-12-19T00:35:31.244Z,9.656064
2018-12-19T00:35:43.580Z,9.656064
2018-12-19T00:35:55.912Z,9.656064
2018-12-19T00:36:08.267Z,8.04672
2018-12-19T00:36:20.614Z,9.656064
2018-12-19T00:36:32.974Z,9.656064
2018-12-19T00:36:45.335Z,9.656064
2018-12-19T00:36:57.758Z,9.656064
2018-12-19T00:37:10.098Z,3.218688
2018-12-19T00:37:22.590Z,8.04672
2018-12-19T00:37:34.930Z,8.04672
2018-12-19T00:37:47.347Z,8.04672
2018-12-19T00:37:59.685Z,8.04672
2018-12-19T00:38:12.029Z,8.04672
2018-12-19T00:38:24.434Z,11.265408
2018-12-19T00:38:36.816Z,11.265408
2018-12-19T00:38:49.329Z,11.265408
2018-12-19T00:39:01.652Z,11.265408
2018-12-19T00:39:20.666Z,8.04672
2018-12-19T00:39:33.050Z,8.04672
2018-12-19T00:39:45.411Z,8.04672
2018-12-19T00:39:57.889Z,8.04672
2018-12-19T00:40:10.247Z,9.656064
2018-12-19T00:40:22.747Z,9.656064
2018-12-19T00:40:35.289Z,9.656064
2018-12-19T00:40:47.639Z,9.656064
2018-12-19T00:41:00.049Z,9.656064
2018-12-19T00:41:12.485Z,4.828032
2018-12-19T00:41:24.813Z,4.828032
2018-12-19T00:41:37.220Z,8.04672
2018-12-19T00:41:49.563Z,9.656064
2018-12-19T00:42:01.898Z,9.656064
2018-12-19T00:42:14.227Z,8.04672
2018-12-19T00:42:26.579Z,8.04672
2018-12-19T00:42:38.910Z,8.04672
2018-12-19T00:42:51.268Z,8.04672
2018-12-19T00:43:03.612Z,6.437376
2018-12-19T00:43:15.951Z,8.04672
2018-12-19T00:43:28.296Z,8.04672
2018-12-19T00:43:40.633Z,8.04672
2018-12-19T00:43:52.978Z,8.04672
2018-12-19T00:44:05.334Z,4.828032
2018-12-19T00:44:17.697Z,6.437376
2018-12-19T00:44:31.481Z,6.437376
2018-12-19T00:44:43.816Z,8.04672
2018-12-19T00:44:56.222Z,9.656064
2018-12-19T00:45:08.552Z,3.218688
2018-12-19T00:45:20.899Z,6.437376
2018-12-19T00:45:33.432Z,6.437376
2018-12-19T00:45:45.787Z,8.04672
2018-12-19T00:45:58.128Z,8.04672
2018-12-19T00:46:10.465Z,3.218688
2018-12-19T00:46:22.810Z,8.04672
2018-12-19T00:46:35.327Z,8.04672
2018-12-19T00:46:47.664Z,8.04672
2018-12-19T00:47:00.008Z,8.04672
2018-12-19T00:47:12.336Z,4.828032
2018-12-19T00:47:24.678Z,8.04672
2018-12-19T00:47:37.031Z,11.265408
2018-12-19T00:47:49.373Z,11.265408
2018-12-19T00:48:01.706Z,11.265408
2018-12-19T00:48:14.049Z,6.437376
2018-12-19T00:48:26.519Z,8.04672
2018-12-19T00:48:38.874Z,8.04672
2018-12-19T00:48:51.211Z,8.04672
2018-12-19T00:49:03.551Z,1.609344
2018-12-19T00:49:15.909Z,3.218688
2018-12-19T00:49:28.319Z,9.656064
2018-12-19T00:49:40.719Z,9.656064
2018-12-19T00:49:54.113Z,9.656064
2018-12-19T00:50:06.646Z,4.828032
2018-12-19T00:50:18.978Z,4.828032
2018-12-19T00:50:31.321Z,4.828032
2018-12-19T00:50:43.660Z,6.437376
2018-12-19T00:50:56.227Z,6.437376
2018-12-19T00:51:08.565Z,6.437376
2018-12-19T00:51:20.913Z,9.656064
2018-12-19T00:51:33.249Z,9.656064
2018-12-19T00:51:45.636Z,9.656064
2018-12-19T00:51:57.965Z,9.656064
2018-12-19T00:52:10.312Z,4.828032
2018-12-19T00:52:22.803Z,9.656064
2018-12-19T00:52:35.154Z,9.656064
2018-12-19T00:52:47.495Z,9.656064
2018-12-19T00:52:59.898Z,9.656064
2018-12-19T00:53:12.237Z,3.218688
2018-12-19T00:53:24.672Z,3.218688
2018-12-19T00:53:36.996Z,3.218688
2018-12-19T00:53:49.349Z,3.218688
2018-12-19T00:54:01.687Z,6.437376
2018-12-19T00:54:14.040Z,4.828032
2018-12-19T00:54:26.401Z,6.437376
2018-12-19T00:54:38.759Z,8.04672
2018-12-19T00:54:51.107Z,9.656064
2018-12-19T00:55:03.583Z,8.04672
2018-12-19T00:55:15.926Z,8.04672
2018-12-19T00:55:28.267Z,8.04672
2018-12-19T00:55:40.658Z,8.04672
2018-12-19T00:55:52.996Z,8.04672
2018-12-19T00:56:05.338Z,6.437376
2018-12-19T00:56:17.890Z,8.04672
2018-12-19T00:56:30.227Z,8.04672
2018-12-19T00:56:42.582Z,8.04672
2018-12-19T00:56:55.074Z,8.04672
2018-12-19T00:57:07.412Z,3.218688
2018-12-19T00:57:19.738Z,3.218688
2018-12-19T00:57:32.073Z,3.218688
2018-12-19T00:57:44.418Z,3.218688
2018-12-19T00:57:56.779Z,4.828032
2018-12-19T00:58:09.128Z,1.609344
2018-12-19T00:58:21.476Z,3.218688
2018-12-19T00:58:33.798Z,3.218688
2018-12-19T00:58:46.129Z,3.218688
2018-12-19T00:58:58.492Z,3.218688
2018-12-19T00:59:10.836Z,3.218688
2018-12-19T00:59:23.185Z,3.218688
2018-12-19T00:59:35.541Z,3.218688
2018-12-19T00:59:47.880Z,6.437376
2018-12-19T01:00:00.225Z,6.437376
2018-12-19T01:00:12.603Z,4.828032
2018-12-19T01:00:24.940Z,6.437376
2018-12-19T01:00:37.299Z,6.437376
2018-12-19T01:00:49.657Z,6.437376
2018-12-19T01:01:02.004Z,6.437376
2018-12-19T01:01:14.344Z,3.218688
2018-12-19T01:01:26.689Z,6.437376
2018-12-19T01:01:39.047Z,6.437376
2018-12-19T01:01:51.393Z,6.437376
2018-12-19T01:02:03.756Z,1.609344
2018-12-19T01:02:16.099Z,1.609344
2018-12-19T01:02:28.605Z,3.218688
2018-12-19T01:02:40.965Z,3.218688
2018-12-19T01:02:53.314Z,4.828032
2018-12-19T01:03:05.658Z,3.218688
2018-12-19T01:03:18.006Z,3.218688
2018-12-19T01:03:30.387Z,3.218688
2018-12-19T01:03:42.724Z,3.218688
2018-12-19T01:03:56.598Z,6.437376
2018-12-19T01:04:09.134Z,6.437376
2018-12-19T01:04:21.481Z,6.437376
2018-12-19T01:04:33.811Z,8.04672
2018-12-19T01:04:52.685Z,8.04672
2018-12-19T01:05:05.034Z,3.218688
2018-12-19T01:05:17.392Z,6.437376
2018-12-19T01:05:29.731Z,6.437376
2018-12-19T01:05:42.060Z,8.04672
2018-12-19T01:05:54.400Z,8.04672
2018-12-19T01:06:06.763Z,1.609344
2018-12-19T01:06:19.095Z,1.609344
2018-12-19T01:06:31.646Z,8.04672
2018-12-19T01:06:43.985Z,8.04672
2018-12-19T01:06:56.312Z,8.04672
2018-12-19T01:07:08.658Z,3.218688
2018-12-19T01:07:21.049Z,3.218688
2018-12-19T01:07:33.398Z,3.218688
2018-12-19T01:07:45.747Z,3.218688
2018-12-19T01:07:58.113Z,3.218688
2018-12-19T01:08:10.456Z,3.218688
2018-12-19T01:08:22.793Z,6.437376
2018-12-19T01:08:35.197Z,6.437376
2018-12-19T01:08:47.572Z,6.437376
2018-12-19T01:08:59.964Z,8.04672
2018-12-19T01:09:18.137Z,8.04672
2018-12-19T01:09:30.500Z,8.04672
2018-12-19T01:09:42.855Z,8.04672
2018-12-19T01:09:55.215Z,8.04672
2018-12-19T01:10:07.553Z,6.437376
2018-12-19T01:10:19.883Z,6.437376
2018-12-19T01:10:32.206Z,6.437376
2018-12-19T01:10:44.621Z,6.437376
2018-12-19T01:10:56.955Z,6.437376
2018-12-19T01:11:09.291Z,1.609344
2018-12-19T01:11:21.623Z,3.218688
2018-12-19T01:11:34.059Z,6.437376
2018-12-19T01:11:46.455Z,6.437376
2018-12-19T01:11:58.801Z,6.437376
2018-12-19T01:12:11.150Z,1.609344
2018-12-19T01:12:23.547Z,1.609344
2018-12-19T01:12:35.916Z,3.218688
2018-12-19T01:12:48.261Z,6.437376
2018-12-19T01:13:00.611Z,6.437376
2018-12-19T01:13:12.942Z,3.218688
2018-12-19T01:13:25.292Z,4.828032
2018-12-19T01:13:37.635Z,8.04672
2018-12-19T01:13:50.175Z,8.04672
2018-12-19T01:14:02.505Z,8.04672
2018-12-19T01:14:14.830Z,3.218688
2018-12-19T01:14:27.182Z,3.218688
2018-12-19T01:14:39.538Z,3.218688
2018-12-19T01:14:51.874Z,4.828032
2018-12-19T01:15:04.210Z,3.218688
2018-12-19T01:15:16.550Z,6.437376
2018-12-19T01:15:28.882Z,6.437376
2018-12-19T01:15:41.224Z,6.437376
2018-12-19T01:15:53.589Z,6.437376
2018-12-19T01:16:05.941Z,6.437376
2018-12-19T01:16:18.287Z,6.437376
2018-12-19T01:16:30.637Z,8.04672
2018-12-19T01:16:42.975Z,8.04672
2018-12-19T01:16:55.354Z,8.04672
2018-12-19T01:17:08.090Z,4.828032
2018-12-19T01:17:20.460Z,8.04672
2018-12-19T01:17:32.818Z,8.04672
2018-12-19T01:17:45.161Z,8.04672
2018-12-19T01:17:57.562Z,9.656064
2018-12-19T01:18:09.922Z,6.437376
2018-12-19T01:18:22.255Z,6.437376
2018-12-19T01:18:34.589Z,6.437376
2018-12-19T01:18:46.933Z,8.04672
2018-12-19T01:18:59.268Z,8.04672
2018-12-19T01:19:11.610Z,3.218688
2018-12-19T01:19:23.947Z,3.218688
2018-12-19T01:19:36.301Z,3.218688
2018-12-19T01:19:48.647Z,3.218688
2018-12-19T01:20:01.002Z,3.218688
2018-12-19T01:20:13.466Z,4.828032
2018-12-19T01:20:25.792Z,6.437376
2018-12-19T01:20:38.142Z,6.437376
2018-12-19T01:20:50.484Z,6.437376
2018-12-19T01:21:02.825Z,4.828032
2018-12-19T01:21:15.168Z,8.04672
2018-12-19T01:21:27.521Z,8.04672
2018-12-19T01:21:39.863Z,8.04672
2018-12-19T01:21:52.221Z,8.04672
2018-12-19T01:22:04.560Z,8.04672
2018-12-19T01:22:16.907Z,9.656064
2018-12-19T01:22:29.276Z,9.656064
2018-12-19T01:22:41.615Z,9.656064
2018-12-19T01:22:53.963Z,9.656064
2018-12-19T01:23:06.294Z,6.437376
2018-12-19T01:23:18.699Z,6.437376
2018-12-19T01:23:31.039Z,8.04672
2018-12-19T01:23:43.371Z,8.04672
2018-12-19T01:23:55.706Z,8.04672
2018-12-19T01:24:08.038Z,3.218688
2018-12-19T01:24:20.394Z,3.218688
2018-12-19T01:24:32.726Z,3.218688
2018-12-19T01:24:45.168Z,4.828032
2018-12-19T01:24:57.538Z,6.437376
2018-12-19T01:25:09.869Z,6.437376
2018-12-19T01:25:22.204Z,6.437376
2018-12-19T01:25:34.528Z,6.437376
2018-12-19T01:25:46.853Z,8.04672
2018-12-19T01:25:59.195Z,8.04672
2018-12-19T01:26:11.540Z,8.04672
2018-12-19T01:26:23.946Z,8.04672
2018-12-19T01:26:36.421Z,8.04672
2018-12-19T01:26:48.755Z,8.04672
2018-12-19T01:27:01.105Z,8.04672
2018-12-19T01:27:13.463Z,3.218688
2018-12-19T01:27:25.792Z,8.04672
2018-12-19T01:27:38.149Z,8.04672
2018-12-19T01:27:50.532Z,8.04672
2018-12-19T01:28:02.869Z,8.04672
2018-12-19T01:28:15.196Z,9.656064
2018-12-19T01:28:27.526Z,9.656064
2018-12-19T01:28:39.849Z,9.656064
2018-12-19T01:28:52.232Z,9.656064
2018-12-19T01:29:04.570Z,3.218688
2018-12-19T01:29:16.908Z,6.437376
2018-12-19T01:29:29.328Z,6.437376
2018-12-19T01:29:41.689Z,8.04672
2018-12-19T01:29:54.018Z,8.04672
2018-12-19T01:30:06.407Z,9.656064
2018-12-19T01:30:18.923Z,9.656064
2018-12-19T01:30:31.291Z,9.656064
2018-12-19T01:30:43.642Z,9.656064
2018-12-19T01:30:56.002Z,9.656064
2018-12-19T01:31:08.472Z,3.218688
2018-12-19T01:31:20.809Z,4.828032
2018-12-19T01:31:33.149Z,6.437376
2018-12-19T01:31:45.502Z,6.437376
2018-12-19T01:31:57.843Z,6.437376
2018-12-19T01:32:10.179Z,3.218688
2018-12-19T01:32:22.533Z,3.218688
2018-12-19T01:32:35.033Z,3.218688
2018-12-19T01:32:47.366Z,3.218688
2018-12-19T01:32:59.712Z,3.218688
2018-12-19T01:33:12.058Z,0
2018-12-19T01:33:24.406Z,3.218688
2018-12-19T01:33:36.756Z,9.656064
2018-12-19T01:33:49.136Z,9.656064
2018-12-19T01:34:01.532Z,9.656064
2018-12-19T01:34:13.897Z,8.04672
2018-12-19T01:34:26.243Z,8.04672
2018-12-19T01:34:38.645Z,8.04672
2018-12-19T01:34:50.984Z,8.04672
2018-12-19T01:35:03.345Z,1.609344
2018-12-19T01:35:15.698Z,3.218688
2018-12-19T01:35:28.037Z,3.218688
2018-12-19T01:35:40.534Z,3.218688
2018-12-19T01:35:52.865Z,3.218688
2018-12-19T01:36:05.219Z,1.609344
2018-12-19T01:36:17.553Z,1.609344
2018-12-19T01:36:29.918Z,1.609344
2018-12-19T01:36:42.262Z,1.609344
2018-12-19T01:36:54.752Z,1.609344
2018-12-19T01:37:07.079Z,0
2018-12-19T01:37:19.589Z,0
2018-12-19T01:37:31.941Z,0
2018-12-19T01:37:44.356Z,1.609344
2018-12-19T01:37:56.762Z,1.609344
2018-12-19T01:38:09.159Z,1.609344
2018-12-19T01:38:21.536Z,1.609344
2018-12-19T01:38:33.879Z,1.609344
2018-12-19T01:38:46.225Z,1.609344
2018-12-19T01:38:59.236Z,1.609344
2018-12-19T01:39:11.582Z,1.609344
2018-12-19T01:39:30.484Z,1.609344
2018-12-19T01:39:42.838Z,3.218688
2018-12-19T01:39:55.350Z,3.218688
2018-12-19T01:40:07.677Z,1.609344
2018-12-19T01:40:20.006Z,1.609344
2018-12-19T01:40:32.742Z,1.609344
2018-12-19T01:40:45.077Z,3.218688
2018-12-19T01:40:57.455Z,4.828032
2018-12-19T01:41:10.164Z,4.828032
2018-12-19T01:41:22.512Z,4.828032
2018-12-19T01:41:34.855Z,4.828032
2018-12-19T01:41:47.208Z,4.828032
2018-12-19T01:41:59.568Z,4.828032
2018-12-19T01:42:11.922Z,3.218688
2018-12-19T01:42:24.359Z,3.218688
2018-12-19T01:42:36.689Z,3.218688
2018-12-19T01:42:49.047Z,3.218688
2018-12-19T01:43:01.391Z,3.218688
2018-12-19T01:43:13.722Z,3.218688
2018-12-19T01:43:26.085Z,3.218688
2018-12-19T01:43:38.422Z,3.218688
2018-12-19T01:43:50.787Z,6.437376
2018-12-19T01:44:03.117Z,6.437376
2018-12-19T01:44:15.456Z,6.437376
2018-12-19T01:44:27.845Z,6.437376
2018-12-19T01:44:40.194Z,6.437376
2018-12-19T01:44:52.552Z,6.437376
2018-12-19T01:45:04.933Z,3.218688
2018-12-19T01:45:17.293Z,3.218688
2018-12-19T01:45:29.655Z,3.218688
2018-12-19T01:45:42.113Z,6.437376
2018-12-19T01:45:54.454Z,8.04672
2018-12-19T01:46:06.807Z,1.609344
2018-12-19T01:46:19.155Z,3.218688
2018-12-19T01:46:31.879Z,3.218688
2018-12-19T01:46:44.207Z,3.218688
2018-12-19T01:46:56.544Z,3.218688
2018-12-19T01:47:08.890Z,1.609344
2018-12-19T01:47:21.235Z,1.609344
2018-12-19T01:47:33.623Z,1.609344
2018-12-19T01:47:45.963Z,1.609344
2018-12-19T01:47:58.322Z,1.609344
2018-12-19T01:48:10.730Z,1.609344
2018-12-19T01:48:23.069Z,1.609344
2018-12-19T01:48:35.578Z,1.609344
2018-12-19T01:48:47.903Z,1.609344
2018-12-19T01:49:00.259Z,1.609344
2018-12-19T01:49:12.596Z,1.609344
2018-12-19T01:49:24.937Z,9.656064
2018-12-19T01:49:37.270Z,9.656064
2018-12-19T01:49:49.656Z,9.656064
2018-12-19T01:50:01.984Z,9.656064
2018-12-19T01:50:14.528Z,8.04672
2018-12-19T01:50:26.878Z,8.04672
2018-12-19T01:50:39.235Z,8.04672
2018-12-19T01:50:51.800Z,8.04672
2018-12-19T01:51:04.126Z,3.218688
2018-12-19T01:51:16.461Z,3.218688
2018-12-19T01:51:28.804Z,6.437376
2018-12-19T01:51:41.132Z,6.437376
2018-12-19T01:51:53.483Z,6.437376
2018-12-19T01:52:05.850Z,1.609344
2018-12-19T01:52:18.293Z,6.437376
2018-12-19T01:52:30.682Z,9.656064
2018-12-19T01:52:43.035Z,9.656064
2018-12-19T01:52:55.374Z,9.656064
2018-12-19T01:53:07.718Z,6.437376
2018-12-19T01:53:20.063Z,6.437376
2018-12-19T01:53:32.548Z,6.437376
2018-12-19T01:53:44.880Z,6.437376
2018-12-19T01:53:57.225Z,6.437376
2018-12-19T01:54:09.573Z,0
2018-12-19T01:54:21.907Z,6.437376
2018-12-19T01:54:34.237Z,8.04672
2018-12-19T01:54:46.592Z,8.04672
2018-12-19T01:54:58.937Z,8.04672
2018-12-19T01:55:11.407Z,3.218688
2018-12-19T01:55:23.783Z,8.04672
2018-12-19T01:55:36.133Z,8.04672
2018-12-19T01:55:48.489Z,8.04672
2018-12-19T01:56:00.809Z,8.04672
2018-12-19T01:56:13.258Z,4.828032
2018-12-19T01:56:25.593Z,9.656064
2018-12-19T01:56:37.943Z,9.656064
2018-12-19T01:56:50.290Z,9.656064
2018-12-19T01:57:02.775Z,9.656064
2018-12-19T01:57:15.101Z,4.828032
2018-12-19T01:57:27.510Z,4.828032
2018-12-19T01:57:39.871Z,6.437376
2018-12-19T01:57:52.194Z,6.437376
2018-12-19T01:58:04.537Z,3.218688
2018-12-19T01:58:16.878Z,6.437376
2018-12-19T01:58:29.236Z,6.437376
2018-12-19T01:58:41.641Z,6.437376
2018-12-19T01:58:53.994Z,6.437376
2018-12-19T01:59:06.343Z,1.609344
2018-12-19T01:59:18.738Z,3.218688
2018-12-19T01:59:31.131Z,8.04672
2018-12-19T01:59:43.479Z,8.04672
2018-12-19T01:59:55.816Z,8.04672
2018-12-19T02:00:08.156Z,1.609344
2018-12-19T02:00:20.529Z,3.218688
2018-12-19T02:00:32.985Z,3.218688
2018-12-19T02:00:45.374Z,3.218688
2018-12-19T02:00:57.737Z,3.218688
2018-12-19T02:01:10.072Z,1.609344
2018-12-19T02:01:22.427Z,1.609344
2018-12-19T02:01:34.801Z,1.609344
2018-12-19T02:01:47.146Z,1.609344
2018-12-19T02:01:59.501Z,1.609344
2018-12-19T02:02:11.844Z,1.609344
2018-12-19T02:02:24.227Z,3.218688
2018-12-19T02:02:36.585Z,3.218688
2018-12-19T02:02:49.069Z,3.218688
2018-12-19T02:03:01.403Z,3.218688
2018-12-19T02:03:13.740Z,1.609344
2018-12-19T02:03:26.094Z,1.609344
2018-12-19T02:03:38.492Z,1.609344
2018-12-19T02:03:50.848Z,3.218688
2018-12-19T02:04:03.184Z,1.609344
2018-12-19T02:04:15.548Z,1.609344
2018-12-19T02:04:27.916Z,1.609344
2018-12-19T02:04:40.712Z,1.609344
2018-12-19T02:04:53.076Z,3.218688
2018-12-19T02:05:05.423Z,1.609344
2018-12-19T02:05:17.751Z,3.218688
2018-12-19T02:05:30.171Z,3.218688
2018-12-19T02:05:42.512Z,3.218688
2018-12-19T02:05:54.863Z,3.218688
2018-12-19T02:06:07.202Z,1.609344
2018-12-19T02:06:19.550Z,3.218688
2018-12-19T02:06:32.155Z,4.828032
2018-12-19T02:06:44.521Z,4.828032
2018-12-19T02:06:56.866Z,4.828032
2018-12-19T02:07:09.197Z,4.828032
2018-12-19T02:07:21.540Z,4.828032
2018-12-19T02:07:33.890Z,4.828032
2018-12-19T02:07:46.215Z,4.828032
2018-12-19T02:07:58.608Z,4.828032
2018-12-19T02:08:10.936Z,1.609344
2018-12-19T02:08:23.274Z,3.218688
2018-12-19T02:08:35.611Z,4.828032
2018-12-19T02:08:47.945Z,4.828032
2018-12-19T02:09:00.283Z,4.828032
2018-12-19T02:09:12.626Z,4.828032
2018-12-19T02:09:31.311Z,6.437376
2018-12-19T02:09:43.691Z,6.437376
2018-12-19T02:09:56.048Z,6.437376
2018-12-19T02:10:08.395Z,0
2018-12-19T02:10:20.734Z,0
2018-12-19T02:10:33.145Z,0
2018-12-19T02:10:45.547Z,0
2018-12-19T02:10:57.895Z,1.609344
2018-12-19T02:11:10.228Z,3.218688
2018-12-19T02:11:22.650Z,3.218688
2018-12-19T02:11:35.011Z,3.218688
2018-12-19T02:11:47.342Z,6.437376
2018-12-19T02:11:59.677Z,8.04672
2018-12-19T02:12:12.033Z,6.437376
2018-12-19T02:12:24.380Z,6.437376
2018-12-19T02:12:36.739Z,6.437376
2018-12-19T02:12:49.095Z,6.437376
2018-12-19T02:13:01.470Z,6.437376
2018-12-19T02:13:13.793Z,3.218688
2018-12-19T02:13:26.130Z,3.218688
2018-12-19T02:13:38.470Z,3.218688
2018-12-19T02:13:50.955Z,3.218688
2018-12-19T02:14:03.298Z,0
2018-12-19T02:14:15.699Z,0
2018-12-19T02:14:28.050Z,0
2018-12-19T02:14:40.409Z,0
2018-12-19T02:14:52.825Z,1.609344
2018-12-19T02:15:05.164Z,1.609344
2018-12-19T02:15:17.510Z,1.609344
2018-12-19T02:15:29.855Z,1.609344
2018-12-19T02:15:42.196Z,1.609344
2018-12-19T02:15:54.539Z,3.218688
2018-12-19T02:16:06.931Z,1.609344
2018-12-19T02:16:19.270Z,3.218688
2018-12-19T02:16:31.632Z,3.218688
2018-12-19T02:16:43.986Z,3.218688
2018-12-19T02:16:56.333Z,3.218688
2018-12-19T02:17:08.837Z,1.609344
2018-12-19T02:17:21.214Z,3.218688
2018-12-19T02:17:33.545Z,3.218688
2018-12-19T02:17:45.968Z,3.218688
2018-12-19T02:17:58.333Z,3.218688
2018-12-19T02:18:10.661Z,0
2018-12-19T02:18:23.020Z,1.609344
2018-12-19T02:18:35.436Z,1.609344
2018-12-19T02:18:47.781Z,3.218688
2018-12-19T02:19:00.334Z,3.218688
2018-12-19T02:19:12.682Z,3.218688
2018-12-19T02:19:25.016Z,3.218688
2018-12-19T02:19:37.373Z,6.437376
2018-12-19T02:19:49.731Z,6.437376
2018-12-19T02:20:02.073Z,6.437376
2018-12-19T02:20:14.589Z,4.828032
2018-12-19T02:20:26.941Z,4.828032
2018-12-19T02:20:39.330Z,6.437376
2018-12-19T02:20:51.690Z,8.04672
2018-12-19T02:21:04.044Z,4.828032
2018-12-19T02:21:16.371Z,6.437376
2018-12-19T02:21:28.712Z,6.437376
2018-12-19T02:21:41.048Z,8.04672
2018-12-19T02:21:53.403Z,8.04672
2018-12-19T02:22:05.734Z,4.828032
2018-12-19T02:22:18.082Z,4.828032
2018-12-19T02:22:30.419Z,4.828032
2018-12-19T02:22:42.757Z,4.828032
2018-12-19T02:22:55.089Z,4.828032
2018-12-19T02:23:07.446Z,0
2018-12-19T02:23:19.770Z,1.609344
2018-12-19T02:23:32.206Z,3.218688
2018-12-19T02:23:44.557Z,3.218688
2018-12-19T02:23:56.901Z,3.218688
2018-12-19T02:24:09.251Z,1.609344
2018-12-19T02:24:21.579Z,1.609344
2018-12-19T02:24:33.933Z,1.609344
2018-12-19T02:24:46.553Z,1.609344
2018-12-19T02:24:58.883Z,6.437376
2018-12-19T02:25:11.224Z,3.218688
2018-12-19T02:25:23.602Z,3.218688
2018-12-19T02:25:35.934Z,3.218688
2018-12-19T02:25:48.295Z,3.218688
2018-12-19T02:26:00.627Z,3.218688
2018-12-19T02:26:12.990Z,3.218688
2018-12-19T02:26:25.317Z,3.218688
2018-12-19T02:26:37.791Z,3.218688
2018-12-19T02:26:50.181Z,3.218688
2018-12-19T02:27:02.516Z,6.437376
2018-12-19T02:27:14.835Z,6.437376